sensor_id;sensor_type;location;lat;lon;timestamp;temperature;humidity
12386;DHT22;6257;57.634;18.310;2022-12-07T00:01:42;2.30;99.90
12386;DHT22;6257;57.634;18.310;2022-12-07T00:04:12;1.90;99.90
12386;DHT22;6257;57.634;18.310;2022-12-07T00:06:40;1.80;99.90
12386;DHT22;6257;57.634;18.310;2022-12-07T00:09:11;1.80;99.90
12386;DHT22;6257;57.634;18.310;2022-12-07T00:11:38;1.80;99.90
12386;DHT22;6257;57.634;18.310;2022-12-07T00:14:09;1.80;99.90
12386;DHT22;6257;57.634;18.310;2022-12-07T00:16:37;1.80;99.90
12386;DHT22;6257;57.634;18.310;2022-12-07T00:19:04;1.70;99.90
12386;DHT22;6257;57.634;18.310;2022-12-07T00:21:33;1.70;99.90
12386;DHT22;6257;57.634;18.310;2022-12-07T00:24:01;1.70;99.90
12386;DHT22;6257;57.634;18.310;2022-12-07T00:26:32;1.70;99.90
12386;DHT22;6257;57.634;18.310;2022-12-07T00:29:01;1.70;99.90
12386;DHT22;6257;57.634;18.310;2022-12-07T00:31:31;1.70;99.90
12386;DHT22;6257;57.634;18.310;2022-12-07T00:34:00;1.70;99.90
12386;DHT22;6257;57.634;18.310;2022-12-07T00:36:27;1.70;99.90
12386;DHT22;6257;57.634;18.310;2022-12-07T00:38:55;1.70;99.90
12386;DHT22;6257;57.634;18.310;2022-12-07T00:41:25;1.70;99.90
12386;DHT22;6257;57.634;18.310;2022-12-07T00:43:54;1.70;99.90
12386;DHT22;6257;57.634;18.310;2022-12-07T00:46:22;1.80;99.90
12386;DHT22;6257;57.634;18.310;2022-12-07T00:48:50;1.80;99.90
12386;DHT22;6257;57.634;18.310;2022-12-07T00:51:19;1.80;99.90
12386;DHT22;6257;57.634;18.310;2022-12-07T00:53:47;1.80;99.90
12386;DHT22;6257;57.634;18.310;2022-12-07T00:56:16;1.80;99.90
12386;DHT22;6257;57.634;18.310;2022-12-07T00:58:43;1.80;99.90
12386;DHT22;6257;57.634;18.310;2022-12-07T01:01:12;1.70;99.90
12386;DHT22;6257;57.634;18.310;2022-12-07T01:03:39;1.80;99.90
12386;DHT22;6257;57.634;18.310;2022-12-07T01:06:06;1.80;99.90
12386;DHT22;6257;57.634;18.310;2022-12-07T01:08:33;1.70;99.90
12386;DHT22;6257;57.634;18.310;2022-12-07T01:11:01;1.70;99.90
12386;DHT22;6257;57.634;18.310;2022-12-07T01:13:29;1.70;99.90
12386;DHT22;6257;57.634;18.310;2022-12-07T01:15:57;1.70;99.90
12386;DHT22;6257;57.634;18.310;2022-12-07T01:18:27;1.70;99.90
12386;DHT22;6257;57.634;18.310;2022-12-07T01:20:58;1.70;99.90
12386;DHT22;6257;57.634;18.310;2022-12-07T01:23:26;1.70;99.90
12386;DHT22;6257;57.634;18.310;2022-12-07T01:25:56;1.80;99.90
12386;DHT22;6257;57.634;18.310;2022-12-07T01:28:23;1.80;99.90
12386;DHT22;6257;57.634;18.310;2022-12-07T01:30:58;1.80;99.90
12386;DHT22;6257;57.634;18.310;2022-12-07T01:33:29;1.80;99.90
12386;DHT22;6257;57.634;18.310;2022-12-07T01:36:01;1.80;99.90
12386;DHT22;6257;57.634;18.310;2022-12-07T01:38:30;1.80;99.90
12386;DHT22;6257;57.634;18.310;2022-12-07T01:40:57;1.80;99.90
12386;DHT22;6257;57.634;18.310;2022-12-07T01:43:27;1.70;99.90
12386;DHT22;6257;57.634;18.310;2022-12-07T01:45:55;1.70;99.90
12386;DHT22;6257;57.634;18.310;2022-12-07T01:48:26;1.70;99.90
12386;DHT22;6257;57.634;18.310;2022-12-07T01:50:57;1.80;99.90
12386;DHT22;6257;57.634;18.310;2022-12-07T01:53:27;1.90;99.90
12386;DHT22;6257;57.634;18.310;2022-12-07T01:55:56;2.00;99.90
12386;DHT22;6257;57.634;18.310;2022-12-07T01:58:23;2.10;99.90
12386;DHT22;6257;57.634;18.310;2022-12-07T02:00:50;2.10;99.90
12386;DHT22;6257;57.634;18.310;2022-12-07T02:03:19;2.20;99.90
12386;DHT22;6257;57.634;18.310;2022-12-07T02:05:49;2.20;99.90
12386;DHT22;6257;57.634;18.310;2022-12-07T02:08:18;2.30;99.90
12386;DHT22;6257;57.634;18.310;2022-12-07T02:10:46;2.20;99.90
12386;DHT22;6257;57.634;18.310;2022-12-07T02:13:15;2.20;99.90
12386;DHT22;6257;57.634;18.310;2022-12-07T02:15:59;2.10;99.90
12386;DHT22;6257;57.634;18.310;2022-12-07T02:18:37;2.10;99.90
12386;DHT22;6257;57.634;18.310;2022-12-07T02:21:11;2.20;99.90
12386;DHT22;6257;57.634;18.310;2022-12-07T02:24:02;2.20;99.90
12386;DHT22;6257;57.634;18.310;2022-12-07T02:27:10;2.30;99.90
12386;DHT22;6257;57.634;18.310;2022-12-07T02:29:47;2.20;99.90
12386;DHT22;6257;57.634;18.310;2022-12-07T02:32:21;2.10;99.90
12386;DHT22;6257;57.634;18.310;2022-12-07T02:34:53;2.00;99.90
12386;DHT22;6257;57.634;18.310;2022-12-07T02:37:32;1.90;99.90
12386;DHT22;6257;57.634;18.310;2022-12-07T02:40:06;1.90;99.90
12386;DHT22;6257;57.634;18.310;2022-12-07T02:42:40;1.70;99.90
12386;DHT22;6257;57.634;18.310;2022-12-07T02:45:10;1.70;99.90
12386;DHT22;6257;57.634;18.310;2022-12-07T02:47:37;1.60;99.90
12386;DHT22;6257;57.634;18.310;2022-12-07T02:50:07;1.60;99.90
12386;DHT22;6257;57.634;18.310;2022-12-07T02:52:34;1.60;99.90
12386;DHT22;6257;57.634;18.310;2022-12-07T02:55:02;1.60;99.90
12386;DHT22;6257;57.634;18.310;2022-12-07T02:57:44;1.60;99.90
12386;DHT22;6257;57.634;18.310;2022-12-07T03:00:19;1.70;99.90
12386;DHT22;6257;57.634;18.310;2022-12-07T03:02:53;1.70;99.90
12386;DHT22;6257;57.634;18.310;2022-12-07T03:05:35;1.70;99.90
12386;DHT22;6257;57.634;18.310;2022-12-07T03:08:11;1.70;99.90
12386;DHT22;6257;57.634;18.310;2022-12-07T03:10:50;1.70;99.90
12386;DHT22;6257;57.634;18.310;2022-12-07T03:13:23;1.70;99.90
12386;DHT22;6257;57.634;18.310;2022-12-07T03:15:56;1.60;99.90
12386;DHT22;6257;57.634;18.310;2022-12-07T03:18:27;1.50;99.90
12386;DHT22;6257;57.634;18.310;2022-12-07T03:21:03;1.50;99.90
12386;DHT22;6257;57.634;18.310;2022-12-07T03:23:34;1.50;99.90
12386;DHT22;6257;57.634;18.310;2022-12-07T03:26:03;1.50;99.90
12386;DHT22;6257;57.634;18.310;2022-12-07T03:28:34;1.60;99.90
12386;DHT22;6257;57.634;18.310;2022-12-07T03:31:09;1.30;99.90
12386;DHT22;6257;57.634;18.310;2022-12-07T03:33:42;1.30;99.90
12386;DHT22;6257;57.634;18.310;2022-12-07T03:36:14;1.20;99.90
12386;DHT22;6257;57.634;18.310;2022-12-07T03:38:46;1.20;99.90
12386;DHT22;6257;57.634;18.310;2022-12-07T03:41:18;1.30;99.90
12386;DHT22;6257;57.634;18.310;2022-12-07T03:43:46;1.40;99.90
12386;DHT22;6257;57.634;18.310;2022-12-07T03:46:20;1.50;99.90
12386;DHT22;6257;57.634;18.310;2022-12-07T03:48:56;1.50;99.90
12386;DHT22;6257;57.634;18.310;2022-12-07T03:51:30;1.60;99.90
12386;DHT22;6257;57.634;18.310;2022-12-07T03:54:07;1.60;99.90
12386;DHT22;6257;57.634;18.310;2022-12-07T03:56:36;1.60;99.90
12386;DHT22;6257;57.634;18.310;2022-12-07T03:59:04;1.70;99.90
12386;DHT22;6257;57.634;18.310;2022-12-07T04:01:33;1.70;99.90
12386;DHT22;6257;57.634;18.310;2022-12-07T04:04:00;1.70;99.90
12386;DHT22;6257;57.634;18.310;2022-12-07T04:06:27;1.70;99.90
12386;DHT22;6257;57.634;18.310;2022-12-07T04:08:54;1.80;99.90
12386;DHT22;6257;57.634;18.310;2022-12-07T04:11:21;1.80;99.90
12386;DHT22;6257;57.634;18.310;2022-12-07T04:13:48;1.80;99.90
12386;DHT22;6257;57.634;18.310;2022-12-07T04:16:33;1.70;99.90
12386;DHT22;6257;57.634;18.310;2022-12-07T04:19:00;1.60;99.90
12386;DHT22;6257;57.634;18.310;2022-12-07T04:21:27;1.60;99.90
12386;DHT22;6257;57.634;18.310;2022-12-07T04:23:54;1.60;99.90
12386;DHT22;6257;57.634;18.310;2022-12-07T04:26:21;1.40;99.90
12386;DHT22;6257;57.634;18.310;2022-12-07T04:28:48;1.50;99.90
12386;DHT22;6257;57.634;18.310;2022-12-07T04:31:15;1.40;99.90
12386;DHT22;6257;57.634;18.310;2022-12-07T04:33:44;1.50;99.90
12386;DHT22;6257;57.634;18.310;2022-12-07T04:36:11;1.40;99.90
12386;DHT22;6257;57.634;18.310;2022-12-07T04:38:38;1.30;99.90
12386;DHT22;6257;57.634;18.310;2022-12-07T04:41:06;1.30;99.90
12386;DHT22;6257;57.634;18.310;2022-12-07T04:43:33;1.30;99.90
12386;DHT22;6257;57.634;18.310;2022-12-07T04:46:00;1.40;99.90
12386;DHT22;6257;57.634;18.310;2022-12-07T04:48:27;1.40;99.90
12386;DHT22;6257;57.634;18.310;2022-12-07T04:50:56;1.30;99.90
12386;DHT22;6257;57.634;18.310;2022-12-07T04:53:23;1.30;99.90
12386;DHT22;6257;57.634;18.310;2022-12-07T04:55:50;1.30;99.90
12386;DHT22;6257;57.634;18.310;2022-12-07T04:58:17;1.50;99.90
12386;DHT22;6257;57.634;18.310;2022-12-07T05:00:44;1.50;99.90
12386;DHT22;6257;57.634;18.310;2022-12-07T05:03:11;1.40;99.90
12386;DHT22;6257;57.634;18.310;2022-12-07T05:05:40;1.50;99.90
12386;DHT22;6257;57.634;18.310;2022-12-07T05:10:36;1.30;99.90
12386;DHT22;6257;57.634;18.310;2022-12-07T05:13:03;1.40;99.90
12386;DHT22;6257;57.634;18.310;2022-12-07T05:15:30;1.50;99.90
12386;DHT22;6257;57.634;18.310;2022-12-07T05:17:57;1.60;99.90
12386;DHT22;6257;57.634;18.310;2022-12-07T05:20:24;1.30;99.90
12386;DHT22;6257;57.634;18.310;2022-12-07T05:22:51;1.40;99.90
12386;DHT22;6257;57.634;18.310;2022-12-07T05:25:20;1.40;99.90
12386;DHT22;6257;57.634;18.310;2022-12-07T05:27:47;1.50;99.90
12386;DHT22;6257;57.634;18.310;2022-12-07T05:30:14;1.40;99.90
12386;DHT22;6257;57.634;18.310;2022-12-07T05:32:41;1.30;99.90
12386;DHT22;6257;57.634;18.310;2022-12-07T05:35:09;1.40;99.90
12386;DHT22;6257;57.634;18.310;2022-12-07T05:37:36;1.50;99.90
12386;DHT22;6257;57.634;18.310;2022-12-07T05:40:04;1.50;99.90
12386;DHT22;6257;57.634;18.310;2022-12-07T05:42:33;1.40;99.90
12386;DHT22;6257;57.634;18.310;2022-12-07T05:45:00;1.40;99.90
12386;DHT22;6257;57.634;18.310;2022-12-07T05:47:27;1.30;99.90
12386;DHT22;6257;57.634;18.310;2022-12-07T05:49:54;1.30;99.90
12386;DHT22;6257;57.634;18.310;2022-12-07T05:52:21;1.30;99.90
12386;DHT22;6257;57.634;18.310;2022-12-07T05:54:48;1.30;99.90
12386;DHT22;6257;57.634;18.310;2022-12-07T05:57:15;1.10;99.90
12386;DHT22;6257;57.634;18.310;2022-12-07T05:59:44;1.00;99.90
12386;DHT22;6257;57.634;18.310;2022-12-07T06:02:12;1.00;99.90
12386;DHT22;6257;57.634;18.310;2022-12-07T06:04:41;0.90;99.90
12386;DHT22;6257;57.634;18.310;2022-12-07T06:07:09;1.00;99.90
12386;DHT22;6257;57.634;18.310;2022-12-07T06:09:36;1.00;99.90
12386;DHT22;6257;57.634;18.310;2022-12-07T06:12:04;1.00;99.90
12386;DHT22;6257;57.634;18.310;2022-12-07T06:14:49;1.00;99.90
12386;DHT22;6257;57.634;18.310;2022-12-07T06:17:17;1.40;99.90
12386;DHT22;6257;57.634;18.310;2022-12-07T06:19:44;1.00;99.90
12386;DHT22;6257;57.634;18.310;2022-12-07T06:22:11;1.40;99.90
12386;DHT22;6257;57.634;18.310;2022-12-07T06:24:39;1.40;99.90
12386;DHT22;6257;57.634;18.310;2022-12-07T06:27:06;0.90;99.90
12386;DHT22;6257;57.634;18.310;2022-12-07T06:29:33;0.90;99.90
12386;DHT22;6257;57.634;18.310;2022-12-07T06:32:02;1.00;99.90
12386;DHT22;6257;57.634;18.310;2022-12-07T06:34:29;1.00;99.90
12386;DHT22;6257;57.634;18.310;2022-12-07T06:36:56;1.00;99.90
12386;DHT22;6257;57.634;18.310;2022-12-07T06:39:26;1.00;99.90
12386;DHT22;6257;57.634;18.310;2022-12-07T06:41:53;1.00;99.90
12386;DHT22;6257;57.634;18.310;2022-12-07T06:44:21;1.00;99.90
12386;DHT22;6257;57.634;18.310;2022-12-07T06:46:48;1.00;99.90
12386;DHT22;6257;57.634;18.310;2022-12-07T06:49:17;0.90;99.90
12386;DHT22;6257;57.634;18.310;2022-12-07T06:51:44;0.90;99.90
12386;DHT22;6257;57.634;18.310;2022-12-07T06:54:13;0.90;99.90
12386;DHT22;6257;57.634;18.310;2022-12-07T06:56:41;0.90;99.90
12386;DHT22;6257;57.634;18.310;2022-12-07T06:59:08;0.90;99.90
12386;DHT22;6257;57.634;18.310;2022-12-07T07:01:36;1.00;99.90
12386;DHT22;6257;57.634;18.310;2022-12-07T07:04:03;1.00;99.90
12386;DHT22;6257;57.634;18.310;2022-12-07T07:06:31;1.00;99.90
12386;DHT22;6257;57.634;18.310;2022-12-07T07:08:58;0.90;99.90
12386;DHT22;6257;57.634;18.310;2022-12-07T07:11:25;1.00;99.90
12386;DHT22;6257;57.634;18.310;2022-12-07T07:13:52;0.90;99.90
12386;DHT22;6257;57.634;18.310;2022-12-07T07:16:22;0.90;99.90
12386;DHT22;6257;57.634;18.310;2022-12-07T07:18:50;1.10;99.90
12386;DHT22;6257;57.634;18.310;2022-12-07T07:21:17;1.00;99.90
12386;DHT22;6257;57.634;18.310;2022-12-07T07:23:45;1.00;99.90
12386;DHT22;6257;57.634;18.310;2022-12-07T07:26:12;1.00;99.90
12386;DHT22;6257;57.634;18.310;2022-12-07T07:28:39;1.00;99.90
12386;DHT22;6257;57.634;18.310;2022-12-07T07:31:06;1.10;99.90
12386;DHT22;6257;57.634;18.310;2022-12-07T07:33:33;1.10;99.90
12386;DHT22;6257;57.634;18.310;2022-12-07T07:36:00;1.10;99.90
12386;DHT22;6257;57.634;18.310;2022-12-07T07:38:27;1.20;99.90
12386;DHT22;6257;57.634;18.310;2022-12-07T07:40:57;1.30;99.90
12386;DHT22;6257;57.634;18.310;2022-12-07T07:43:24;1.10;99.90
12386;DHT22;6257;57.634;18.310;2022-12-07T07:45:51;1.10;99.90
12386;DHT22;6257;57.634;18.310;2022-12-07T07:48:18;1.10;99.90
12386;DHT22;6257;57.634;18.310;2022-12-07T07:50:45;1.20;99.90
12386;DHT22;6257;57.634;18.310;2022-12-07T07:53:12;1.20;99.90
12386;DHT22;6257;57.634;18.310;2022-12-07T07:55:39;1.20;99.90
12386;DHT22;6257;57.634;18.310;2022-12-07T07:58:07;1.30;99.90
12386;DHT22;6257;57.634;18.310;2022-12-07T08:00:35;1.50;99.90
12386;DHT22;6257;57.634;18.310;2022-12-07T08:03:01;1.30;99.90
12386;DHT22;6257;57.634;18.310;2022-12-07T08:05:28;1.30;99.90
12386;DHT22;6257;57.634;18.310;2022-12-07T08:07:57;1.30;99.90
12386;DHT22;6257;57.634;18.310;2022-12-07T08:10:24;1.20;99.90
12386;DHT22;6257;57.634;18.310;2022-12-07T08:12:51;1.30;99.90
12386;DHT22;6257;57.634;18.310;2022-12-07T08:15:38;1.60;99.90
12386;DHT22;6257;57.634;18.310;2022-12-07T08:18:05;1.50;99.90
12386;DHT22;6257;57.634;18.310;2022-12-07T08:20:33;1.60;99.90
12386;DHT22;6257;57.634;18.310;2022-12-07T08:23:00;1.60;99.90
12386;DHT22;6257;57.634;18.310;2022-12-07T08:25:28;1.50;99.90
12386;DHT22;6257;57.634;18.310;2022-12-07T08:27:54;1.50;99.90
12386;DHT22;6257;57.634;18.310;2022-12-07T08:30:22;1.50;99.90
12386;DHT22;6257;57.634;18.310;2022-12-07T08:32:50;1.60;99.90
12386;DHT22;6257;57.634;18.310;2022-12-07T08:35:17;1.60;99.90
12386;DHT22;6257;57.634;18.310;2022-12-07T08:37:45;1.60;99.90
12386;DHT22;6257;57.634;18.310;2022-12-07T08:40:13;1.50;99.90
12386;DHT22;6257;57.634;18.310;2022-12-07T08:42:41;1.50;99.90
12386;DHT22;6257;57.634;18.310;2022-12-07T08:45:11;1.50;99.90
12386;DHT22;6257;57.634;18.310;2022-12-07T08:47:41;1.60;99.90
12386;DHT22;6257;57.634;18.310;2022-12-07T08:52:40;1.50;99.90
12386;DHT22;6257;57.634;18.310;2022-12-07T08:55:09;1.60;99.90
12386;DHT22;6257;57.634;18.310;2022-12-07T08:57:39;1.60;99.90
12386;DHT22;6257;57.634;18.310;2022-12-07T09:00:08;1.50;99.90
12386;DHT22;6257;57.634;18.310;2022-12-07T09:02:36;1.50;99.90
12386;DHT22;6257;57.634;18.310;2022-12-07T09:05:03;1.50;99.90
12386;DHT22;6257;57.634;18.310;2022-12-07T09:07:32;1.40;99.90
12386;DHT22;6257;57.634;18.310;2022-12-07T09:10:00;1.40;99.90
12386;DHT22;6257;57.634;18.310;2022-12-07T09:12:27;1.30;99.90
12386;DHT22;6257;57.634;18.310;2022-12-07T09:14:54;1.20;99.90
12386;DHT22;6257;57.634;18.310;2022-12-07T09:17:21;1.20;99.90
12386;DHT22;6257;57.634;18.310;2022-12-07T09:19:48;1.20;99.90
12386;DHT22;6257;57.634;18.310;2022-12-07T09:22:15;1.20;99.90
12386;DHT22;6257;57.634;18.310;2022-12-07T09:24:44;1.10;99.90
12386;DHT22;6257;57.634;18.310;2022-12-07T09:27:11;1.10;99.90
12386;DHT22;6257;57.634;18.310;2022-12-07T09:29:38;1.00;99.90
12386;DHT22;6257;57.634;18.310;2022-12-07T09:32:05;1.10;99.90
12386;DHT22;6257;57.634;18.310;2022-12-07T09:34:32;1.10;99.90
12386;DHT22;6257;57.634;18.310;2022-12-07T09:37:00;1.10;99.90
12386;DHT22;6257;57.634;18.310;2022-12-07T09:39:28;1.10;99.90
12386;DHT22;6257;57.634;18.310;2022-12-07T09:41:57;1.10;99.90
12386;DHT22;6257;57.634;18.310;2022-12-07T09:44:26;1.10;99.90
12386;DHT22;6257;57.634;18.310;2022-12-07T09:46:54;1.00;99.90
12386;DHT22;6257;57.634;18.310;2022-12-07T09:49:24;1.00;99.90
12386;DHT22;6257;57.634;18.310;2022-12-07T09:52:01;1.10;99.90
12386;DHT22;6257;57.634;18.310;2022-12-07T09:54:29;1.00;99.90
12386;DHT22;6257;57.634;18.310;2022-12-07T09:56:58;1.00;99.90
12386;DHT22;6257;57.634;18.310;2022-12-07T09:59:26;0.90;99.90
12386;DHT22;6257;57.634;18.310;2022-12-07T10:01:53;1.00;99.90
12386;DHT22;6257;57.634;18.310;2022-12-07T10:04:23;1.00;99.90
12386;DHT22;6257;57.634;18.310;2022-12-07T10:06:51;1.00;99.90
12386;DHT22;6257;57.634;18.310;2022-12-07T10:09:19;1.00;99.90
12386;DHT22;6257;57.634;18.310;2022-12-07T10:12:05;1.00;99.90
12386;DHT22;6257;57.634;18.310;2022-12-07T10:14:35;1.00;99.90
12386;DHT22;6257;57.634;18.310;2022-12-07T10:17:33;1.10;99.90
12386;DHT22;6257;57.634;18.310;2022-12-07T10:20:16;1.10;99.90
12386;DHT22;6257;57.634;18.310;2022-12-07T10:23:01;1.10;99.90
12386;DHT22;6257;57.634;18.310;2022-12-07T10:25:30;1.10;99.90
12386;DHT22;6257;57.634;18.310;2022-12-07T10:28:11;1.10;99.90
12386;DHT22;6257;57.634;18.310;2022-12-07T10:30:47;1.10;99.90
12386;DHT22;6257;57.634;18.310;2022-12-07T10:33:31;1.10;99.90
12386;DHT22;6257;57.634;18.310;2022-12-07T10:36:00;1.10;99.90
12386;DHT22;6257;57.634;18.310;2022-12-07T10:38:28;1.10;99.90
12386;DHT22;6257;57.634;18.310;2022-12-07T10:41:05;1.10;99.90
12386;DHT22;6257;57.634;18.310;2022-12-07T10:43:34;1.10;99.90
12386;DHT22;6257;57.634;18.310;2022-12-07T10:46:18;1.10;99.90
12386;DHT22;6257;57.634;18.310;2022-12-07T10:48:54;1.10;99.90
12386;DHT22;6257;57.634;18.310;2022-12-07T10:51:27;1.10;99.90
12386;DHT22;6257;57.634;18.310;2022-12-07T10:54:03;1.10;99.90
12386;DHT22;6257;57.634;18.310;2022-12-07T10:56:52;1.10;99.90
12386;DHT22;6257;57.634;18.310;2022-12-07T10:59:38;1.10;99.90
12386;DHT22;6257;57.634;18.310;2022-12-07T11:02:24;1.00;99.90
12386;DHT22;6257;57.634;18.310;2022-12-07T11:05:02;0.90;99.90
12386;DHT22;6257;57.634;18.310;2022-12-07T11:07:39;0.90;99.90
12386;DHT22;6257;57.634;18.310;2022-12-07T11:10:13;0.90;99.90
12386;DHT22;6257;57.634;18.310;2022-12-07T11:12:51;0.80;99.90
12386;DHT22;6257;57.634;18.310;2022-12-07T11:15:25;0.80;99.90
12386;DHT22;6257;57.634;18.310;2022-12-07T11:17:58;0.80;99.90
12386;DHT22;6257;57.634;18.310;2022-12-07T11:20:39;0.80;99.90
12386;DHT22;6257;57.634;18.310;2022-12-07T11:23:16;0.80;99.90
12386;DHT22;6257;57.634;18.310;2022-12-07T11:25:51;0.80;99.90
12386;DHT22;6257;57.634;18.310;2022-12-07T11:28:32;0.80;99.90
12386;DHT22;6257;57.634;18.310;2022-12-07T11:31:11;0.80;99.90
12386;DHT22;6257;57.634;18.310;2022-12-07T11:33:45;0.80;99.90
12386;DHT22;6257;57.634;18.310;2022-12-07T11:36:31;0.80;99.90
12386;DHT22;6257;57.634;18.310;2022-12-07T11:39:02;0.80;99.90
12386;DHT22;6257;57.634;18.310;2022-12-07T11:41:34;0.80;99.90
12386;DHT22;6257;57.634;18.310;2022-12-07T11:44:07;0.80;99.90
12386;DHT22;6257;57.634;18.310;2022-12-07T11:46:47;0.80;99.90
12386;DHT22;6257;57.634;18.310;2022-12-07T11:49:22;0.80;99.90
12386;DHT22;6257;57.634;18.310;2022-12-07T11:51:57;0.70;99.90
12386;DHT22;6257;57.634;18.310;2022-12-07T11:54:31;0.80;99.90
12386;DHT22;6257;57.634;18.310;2022-12-07T11:57:04;0.80;99.90
12386;DHT22;6257;57.634;18.310;2022-12-07T11:59:42;0.80;99.90
12386;DHT22;6257;57.634;18.310;2022-12-07T12:02:16;0.80;99.90
12386;DHT22;6257;57.634;18.310;2022-12-07T12:04:51;1.20;99.90
12386;DHT22;6257;57.634;18.310;2022-12-07T12:07:22;0.90;99.90
12386;DHT22;6257;57.634;18.310;2022-12-07T12:09:52;0.90;99.90
12386;DHT22;6257;57.634;18.310;2022-12-07T12:15:42;0.90;99.90
12386;DHT22;6257;57.634;18.310;2022-12-07T12:18:34;0.90;99.90
12386;DHT22;6257;57.634;18.310;2022-12-07T12:21:04;0.90;99.90
12386;DHT22;6257;57.634;18.310;2022-12-07T12:23:38;0.90;99.90
12386;DHT22;6257;57.634;18.310;2022-12-07T12:26:13;1.00;99.90
12386;DHT22;6257;57.634;18.310;2022-12-07T12:28:50;1.00;99.90
12386;DHT22;6257;57.634;18.310;2022-12-07T12:31:32;1.00;99.90
12386;DHT22;6257;57.634;18.310;2022-12-07T12:34:10;1.00;99.90
12386;DHT22;6257;57.634;18.310;2022-12-07T12:36:51;1.00;99.90
12386;DHT22;6257;57.634;18.310;2022-12-07T12:39:18;1.00;99.90
12386;DHT22;6257;57.634;18.310;2022-12-07T12:41:55;1.00;99.90
12386;DHT22;6257;57.634;18.310;2022-12-07T12:47:42;1.00;99.90
12386;DHT22;6257;57.634;18.310;2022-12-07T12:50:20;1.10;99.90
12386;DHT22;6257;57.634;18.310;2022-12-07T12:53:04;1.00;99.90
12386;DHT22;6257;57.634;18.310;2022-12-07T12:56:17;1.00;99.90
12386;DHT22;6257;57.634;18.310;2022-12-07T12:58:47;1.00;99.90
12386;DHT22;6257;57.634;18.310;2022-12-07T13:01:37;1.10;99.90
12386;DHT22;6257;57.634;18.310;2022-12-07T13:04:24;1.00;99.90
12386;DHT22;6257;57.634;18.310;2022-12-07T13:06:53;0.90;99.90
12386;DHT22;6257;57.634;18.310;2022-12-07T13:09:23;0.90;99.90
12386;DHT22;6257;57.634;18.310;2022-12-07T13:12:00;0.90;99.90
12386;DHT22;6257;57.634;18.310;2022-12-07T13:14:54;1.00;99.90
12386;DHT22;6257;57.634;18.310;2022-12-07T13:20:49;0.90;99.90
12386;DHT22;6257;57.634;18.310;2022-12-07T13:23:24;0.80;99.90
12386;DHT22;6257;57.634;18.310;2022-12-07T13:25:56;0.70;99.90
12386;DHT22;6257;57.634;18.310;2022-12-07T13:28:31;0.70;99.90
12386;DHT22;6257;57.634;18.310;2022-12-07T13:31:23;0.70;99.90
12386;DHT22;6257;57.634;18.310;2022-12-07T13:33:52;0.70;99.90
12386;DHT22;6257;57.634;18.310;2022-12-07T13:36:22;0.70;99.90
12386;DHT22;6257;57.634;18.310;2022-12-07T13:38:54;0.70;99.90
12386;DHT22;6257;57.634;18.310;2022-12-07T13:41:25;0.70;99.90
12386;DHT22;6257;57.634;18.310;2022-12-07T13:43:59;0.70;99.90
12386;DHT22;6257;57.634;18.310;2022-12-07T13:46:44;0.70;99.90
12386;DHT22;6257;57.634;18.310;2022-12-07T13:49:19;0.60;99.90
12386;DHT22;6257;57.634;18.310;2022-12-07T13:51:47;0.80;99.90
12386;DHT22;6257;57.634;18.310;2022-12-07T13:54:18;1.10;99.90
12386;DHT22;6257;57.634;18.310;2022-12-07T13:56:48;0.70;99.90
12386;DHT22;6257;57.634;18.310;2022-12-07T13:59:19;0.70;99.90
12386;DHT22;6257;57.634;18.310;2022-12-07T14:01:49;0.80;99.90
12386;DHT22;6257;57.634;18.310;2022-12-07T14:04:19;0.70;99.90
12386;DHT22;6257;57.634;18.310;2022-12-07T14:06:49;0.70;99.90
12386;DHT22;6257;57.634;18.310;2022-12-07T14:09:21;0.70;99.90
12386;DHT22;6257;57.634;18.310;2022-12-07T14:11:50;0.80;99.90
12386;DHT22;6257;57.634;18.310;2022-12-07T14:14:20;0.70;99.90
12386;DHT22;6257;57.634;18.310;2022-12-07T14:17:00;0.80;99.90
12386;DHT22;6257;57.634;18.310;2022-12-07T14:19:49;0.70;99.90
12386;DHT22;6257;57.634;18.310;2022-12-07T14:22:36;0.70;99.90
12386;DHT22;6257;57.634;18.310;2022-12-07T14:25:18;0.70;99.90
12386;DHT22;6257;57.634;18.310;2022-12-07T14:27:55;0.70;99.90
12386;DHT22;6257;57.634;18.310;2022-12-07T14:30:26;0.70;99.90
12386;DHT22;6257;57.634;18.310;2022-12-07T14:32:57;0.70;99.90
12386;DHT22;6257;57.634;18.310;2022-12-07T14:35:24;0.70;99.90
12386;DHT22;6257;57.634;18.310;2022-12-07T14:37:51;0.60;99.90
12386;DHT22;6257;57.634;18.310;2022-12-07T14:40:22;0.70;99.90
12386;DHT22;6257;57.634;18.310;2022-12-07T14:42:51;0.70;99.90
12386;DHT22;6257;57.634;18.310;2022-12-07T14:45:21;0.70;99.90
12386;DHT22;6257;57.634;18.310;2022-12-07T14:47:48;0.70;99.90
12386;DHT22;6257;57.634;18.310;2022-12-07T14:50:17;0.80;99.90
12386;DHT22;6257;57.634;18.310;2022-12-07T14:52:48;0.60;99.90
12386;DHT22;6257;57.634;18.310;2022-12-07T14:57:50;0.70;99.90
12386;DHT22;6257;57.634;18.310;2022-12-07T15:00:19;0.70;99.90
12386;DHT22;6257;57.634;18.310;2022-12-07T15:02:47;0.70;99.90
12386;DHT22;6257;57.634;18.310;2022-12-07T15:05:15;0.70;99.90
12386;DHT22;6257;57.634;18.310;2022-12-07T15:07:42;0.80;99.90
12386;DHT22;6257;57.634;18.310;2022-12-07T15:10:16;0.70;99.90
12386;DHT22;6257;57.634;18.310;2022-12-07T15:12:44;0.70;99.90
12386;DHT22;6257;57.634;18.310;2022-12-07T15:15:13;0.70;99.90
12386;DHT22;6257;57.634;18.310;2022-12-07T15:17:42;0.70;99.90
12386;DHT22;6257;57.634;18.310;2022-12-07T15:20:12;0.70;99.90
12386;DHT22;6257;57.634;18.310;2022-12-07T15:22:39;0.70;99.90
12386;DHT22;6257;57.634;18.310;2022-12-07T15:25:08;0.70;99.90
12386;DHT22;6257;57.634;18.310;2022-12-07T15:27:35;0.70;99.90
12386;DHT22;6257;57.634;18.310;2022-12-07T15:30:04;0.70;99.90
12386;DHT22;6257;57.634;18.310;2022-12-07T15:32:32;0.70;99.90
12386;DHT22;6257;57.634;18.310;2022-12-07T15:34:59;0.70;99.90
12386;DHT22;6257;57.634;18.310;2022-12-07T15:37:26;0.70;99.90
12386;DHT22;6257;57.634;18.310;2022-12-07T15:39:53;0.70;99.90
12386;DHT22;6257;57.634;18.310;2022-12-07T15:42:20;0.70;99.90
12386;DHT22;6257;57.634;18.310;2022-12-07T15:44:48;0.70;99.90
12386;DHT22;6257;57.634;18.310;2022-12-07T15:47:37;0.70;99.90
12386;DHT22;6257;57.634;18.310;2022-12-07T15:50:06;0.70;99.90
12386;DHT22;6257;57.634;18.310;2022-12-07T15:52:34;0.60;99.90
12386;DHT22;6257;57.634;18.310;2022-12-07T15:55:02;0.70;99.90
12386;DHT22;6257;57.634;18.310;2022-12-07T15:57:29;0.70;99.90
12386;DHT22;6257;57.634;18.310;2022-12-07T15:59:57;0.70;99.90
12386;DHT22;6257;57.634;18.310;2022-12-07T16:02:24;0.70;99.90
12386;DHT22;6257;57.634;18.310;2022-12-07T16:04:53;0.70;99.90
12386;DHT22;6257;57.634;18.310;2022-12-07T16:07:20;0.60;99.90
12386;DHT22;6257;57.634;18.310;2022-12-07T16:09:47;0.70;99.90
12386;DHT22;6257;57.634;18.310;2022-12-07T16:12:15;0.60;99.90
12386;DHT22;6257;57.634;18.310;2022-12-07T16:14:42;0.60;99.90
12386;DHT22;6257;57.634;18.310;2022-12-07T16:17:10;0.60;99.90
12386;DHT22;6257;57.634;18.310;2022-12-07T16:19:37;0.60;99.90
12386;DHT22;6257;57.634;18.310;2022-12-07T16:22:06;0.60;99.90
12386;DHT22;6257;57.634;18.310;2022-12-07T16:24:33;0.60;99.90
12386;DHT22;6257;57.634;18.310;2022-12-07T16:27:00;0.60;99.90